Greenfield, United Kingdom
Current Conditions -  °F | °C
As of 3:50 PM on Sunday 28 Dec 2014 (Local Time) from EGNR Reporting Station
Clear Clear  
Wind Chill: 32°   Ceiling: Unl
Heat Index: 36°   Visibility: 6mi
Dew Point: 32°   Wind: 5mph
Humidity: 87%   Direction: 210°SSW
Pressure: 30.59"   Gusts: NA
Location:  53.28°N, 3.22°W
Report Text: EGNR 281550Z 21004KT CAVOK 02/M00 Q1036
Loading
Personal Weather Stations






























Interactive Weather Map New forecast layout! Learn more

10-Day Weather Forecast

Advertisements
Track Severe Weather on mobile